Time;durP1;ratioP1;P1;durP2;ratioP2;P2;SDS_P1;SDS_P2;PMS_P1;PMS_P2;Temp;Humidity;BMP_temperature;BMP_pressure;BME280_temperature;BME280_humidity;BME280_pressure;Samples;Min_cycle;Max_cycle;Signal;HPM_P1;HPM_P2
2023/11/26 00:01:34;;;;;;;9.25;4.38;;;;;;;;;;10529966;28;20475;-88
2023/11/26 00:06:42;;;;;;;7.10;4.20;;;;;;;;;;10515494;28;20513;-88
2023/11/26 00:11:45;;;;;;;7.43;3.42;;;;;;;;;;10553173;28;20479;-88
2023/11/26 00:16:47;;;;;;;5.05;3.35;;;;;;;;;;10549223;28;20477;-88
2023/11/26 00:21:51;;;;;;;5.87;2.90;;;;;;;;;;10548633;28;20471;-88
2023/11/26 00:26:53;;;;;;;4.40;2.63;;;;;;;;;;10541152;28;20396;-88
2023/11/26 00:31:55;;;;;;;5.85;3.00;;;;;;;;;;10530696;28;20408;-88
2023/11/26 00:36:59;;;;;;;5.60;3.37;;;;;;;;;;10514124;28;20436;-88
2023/11/26 00:42:02;;;;;;;4.28;2.80;;;;;;;;;;10527080;28;20416;-88
2023/11/26 00:47:05;;;;;;;5.50;2.58;;;;;;;;;;10524316;28;20456;-87
2023/11/26 00:52:08;;;;;;;8.18;3.50;;;;;;;;;;10537733;28;20410;-88
2023/11/26 00:57:11;;;;;;;5.47;3.40;;;;;;;;;;10526240;28;20402;-88
2023/11/26 01:02:13;;;;;;;5.10;2.80;;;;;;;;;;10537868;28;20414;-88
2023/11/26 01:07:17;;;;;;;5.10;2.80;;;;;;;;;;10556875;28;20473;-88
2023/11/26 01:12:20;;;;;;;6.10;2.60;;;;;;;;;;10540994;28;20430;-89
2023/11/26 01:17:22;;;;;;;5.22;2.70;;;;;;;;;;10549462;28;20430;-88
2023/11/26 01:22:26;;;;;;;6.03;2.93;;;;;;;;;;10553310;28;20940;-88
2023/11/26 01:27:29;;;;;;;4.53;2.45;;;;;;;;;;10554736;28;20386;-88
2023/11/26 01:32:32;;;;;;;3.38;2.28;;;;;;;;;;10535291;28;20808;-88
2023/11/26 01:37:36;;;;;;;4.60;2.25;;;;;;;;;;10530307;28;20400;-89
2023/11/26 01:42:41;;;;;;;3.65;1.65;;;;;;;;;;10554746;28;20410;-89
2023/11/26 01:47:43;;;;;;;3.95;2.40;;;;;;;;;;10542099;28;20760;-89
2023/11/26 01:52:49;;;;;;;7.97;3.07;;;;;;;;;;10529019;28;20483;-88
2023/11/26 01:57:52;;;;;;;3.70;1.92;;;;;;;;;;10543109;28;20414;-89
2023/11/26 02:02:56;;;;;;;4.28;2.50;;;;;;;;;;10540084;28;20430;-88
2023/11/26 02:07:59;;;;;;;3.80;2.72;;;;;;;;;;10535305;28;20388;-88
2023/11/26 02:13:03;;;;;;;6.38;3.30;;;;;;;;;;10564226;28;20394;-88
2023/11/26 02:18:07;;;;;;;3.23;2.33;;;;;;;;;;10534287;28;20406;-88
2023/11/26 02:23:10;;;;;;;3.80;2.80;;;;;;;;;;10536460;28;20444;-89
2023/11/26 02:28:14;;;;;;;3.88;2.38;;;;;;;;;;10513909;28;20402;-90
2023/11/26 02:33:17;;;;;;;3.83;2.33;;;;;;;;;;10533739;28;20402;-89
2023/11/26 02:38:19;;;;;;;2.75;2.10;;;;;;;;;;10557307;28;20906;-90
2023/11/26 02:43:23;;;;;;;3.67;2.17;;;;;;;;;;10523233;28;20398;-89
2023/11/26 02:48:26;;;;;;;3.10;2.00;;;;;;;;;;10544769;28;20420;-90
2023/11/26 02:53:28;;;;;;;4.00;2.10;;;;;;;;;;10514016;28;20397;-90
2023/11/26 02:58:32;;;;;;;3.20;2.10;;;;;;;;;;10552749;28;20437;-89
2023/11/26 03:03:34;;;;;;;4.25;2.42;;;;;;;;;;10548189;28;20766;-89
2023/11/26 03:08:38;;;;;;;4.25;2.70;;;;;;;;;;10539745;28;20455;-90
2023/11/26 03:13:42;;;;;;;4.73;2.70;;;;;;;;;;10549201;28;20392;-89
2023/11/26 03:18:45;;;;;;;5.83;2.53;;;;;;;;;;10543110;28;21008;-89
2023/11/26 03:23:48;;;;;;;3.38;2.65;;;;;;;;;;10534713;28;20506;-89
2023/11/26 03:28:51;;;;;;;4.93;3.10;;;;;;;;;;10552169;28;20460;-89
2023/11/26 03:33:53;;;;;;;5.72;3.22;;;;;;;;;;10572082;28;20432;-89
2023/11/26 03:38:56;;;;;;;5.22;2.97;;;;;;;;;;10553604;28;21026;-90
2023/11/26 03:44:00;;;;;;;5.72;3.20;;;;;;;;;;10522837;28;20446;-89
2023/11/26 03:49:02;;;;;;;5.35;3.10;;;;;;;;;;10536591;28;20409;-89
2023/11/26 03:54:05;;;;;;;4.97;3.38;;;;;;;;;;10537395;28;20385;-89
2023/11/26 03:59:08;;;;;;;6.20;3.40;;;;;;;;;;10553484;28;20469;-90
2023/11/26 04:04:11;;;;;;;5.53;3.43;;;;;;;;;;10540300;28;20403;-90
2023/11/26 04:09:14;;;;;;;7.07;3.97;;;;;;;;;;10536461;28;20840;-89
2023/11/26 04:14:17;;;;;;;6.10;3.95;;;;;;;;;;10544475;28;20408;-90
2023/11/26 04:19:20;;;;;;;6.00;4.13;;;;;;;;;;10553603;28;20454;-90
2023/11/26 04:24:23;;;;;;;8.23;4.20;;;;;;;;;;10561451;28;20951;-89
2023/11/26 04:29:27;;;;;;;5.00;3.60;;;;;;;;;;10509444;28;20436;-89
2023/11/26 04:34:29;;;;;;;7.68;3.85;;;;;;;;;;10515264;28;20402;-90
2023/11/26 04:39:32;;;;;;;8.47;4.40;;;;;;;;;;10526066;28;20426;-90
2023/11/26 04:44:36;;;;;;;8.75;4.72;;;;;;;;;;10518193;28;20402;-89
2023/11/26 04:49:38;;;;;;;8.63;4.43;;;;;;;;;;10560331;28;20407;-89
2023/11/26 04:54:40;;;;;;;8.52;4.45;;;;;;;;;;10544471;28;20456;-90
2023/11/26 04:59:44;;;;;;;8.70;4.70;;;;;;;;;;10556749;28;20423;-90
2023/11/26 05:04:47;;;;;;;7.25;4.40;;;;;;;;;;10575395;28;20437;-89
2023/11/26 05:09:50;;;;;;;6.93;4.40;;;;;;;;;;10518927;28;20453;-89
2023/11/26 05:14:54;;;;;;;7.10;4.80;;;;;;;;;;10562022;28;20457;-89
2023/11/26 05:19:56;;;;;;;7.90;4.93;;;;;;;;;;10536568;28;20444;-89
2023/11/26 05:24:59;;;;;;;10.98;5.50;;;;;;;;;;10544210;28;20481;-88
2023/11/26 05:30:03;;;;;;;7.60;4.50;;;;;;;;;;10529017;28;20421;-88
2023/11/26 05:35:12;;;;;;;7.80;4.70;;;;;;;;;;10551082;28;20403;-89
2023/11/26 05:40:15;;;;;;;7.37;4.37;;;;;;;;;;10520527;28;20428;-89
2023/11/26 05:45:18;;;;;;;9.43;4.50;;;;;;;;;;10521872;28;20463;-89
2023/11/26 05:50:21;;;;;;;7.22;4.45;;;;;;;;;;10534435;28;20434;-89
2023/11/26 05:55:24;;;;;;;6.45;4.15;;;;;;;;;;10526028;28;20405;-89
2023/11/26 06:00:28;;;;;;;7.35;4.00;;;;;;;;;;10533482;28;20475;-89
2023/11/26 06:05:30;;;;;;;7.47;4.50;;;;;;;;;;10526923;28;20464;-89
2023/11/26 06:10:33;;;;;;;6.45;4.18;;;;;;;;;;10541795;28;20517;-89
2023/11/26 06:15:37;;;;;;;6.82;4.22;;;;;;;;;;10527569;28;20402;-88
2023/11/26 06:20:39;;;;;;;7.25;4.18;;;;;;;;;;10553632;28;20473;-89
2023/11/26 06:25:42;;;;;;;7.00;4.17;;;;;;;;;;10537963;28;20501;-89
2023/11/26 06:30:46;;;;;;;5.78;3.80;;;;;;;;;;10553028;28;20404;-90
2023/11/26 06:35:48;;;;;;;7.97;3.88;;;;;;;;;;10562444;28;20410;-89
2023/11/26 06:40:50;;;;;;;10.77;5.37;;;;;;;;;;10529561;28;20420;-90
2023/11/26 06:45:55;;;;;;;7.75;4.60;;;;;;;;;;10556669;28;20388;-89
2023/11/26 06:50:57;;;;;;;8.13;4.32;;;;;;;;;;10538541;28;20394;-88
2023/11/26 06:56:00;;;;;;;9.13;4.43;;;;;;;;;;10536938;28;20404;-88
2023/11/26 07:01:05;;;;;;;6.30;4.15;;;;;;;;;;10574727;28;20415;-89
2023/11/26 07:06:08;;;;;;;6.68;4.20;;;;;;;;;;10530084;28;20400;-89
2023/11/26 07:11:17;;;;;;;8.00;4.80;;;;;;;;;;10539564;28;20395;-89
2023/11/26 07:16:22;;;;;;;6.35;4.30;;;;;;;;;;10538942;28;20406;-89
2023/11/26 07:21:24;;;;;;;8.60;4.80;;;;;;;;;;10540199;28;20477;-89
2023/11/26 07:26:26;;;;;;;7.07;4.07;;;;;;;;;;10536442;28;20456;-89
2023/11/26 07:31:30;;;;;;;5.57;3.78;;;;;;;;;;10529067;28;20440;-89
2023/11/26 07:36:33;;;;;;;7.95;4.40;;;;;;;;;;10544222;28;20458;-89
2023/11/26 07:41:35;;;;;;;8.13;4.27;;;;;;;;;;10539567;28;20413;-89
2023/11/26 07:46:39;;;;;;;5.82;4.15;;;;;;;;;;10537590;28;20417;-88
2023/11/26 07:51:41;;;;;;;8.82;4.65;;;;;;;;;;10507995;28;20394;-89
2023/11/26 07:56:44;;;;;;;7.53;4.87;;;;;;;;;;10534564;28;20416;-89
2023/11/26 08:01:50;;;;;;;12.10;5.10;;;;;;;;;;10517804;28;20427;-89
2023/11/26 08:06:53;;;;;;;9.30;4.45;;;;;;;;;;10552596;28;20455;-88
2023/11/26 08:11:57;;;;;;;256.73;84.65;;;;;;;;;;10518061;28;20493;-89
2023/11/26 08:17:04;;;;;;;9.48;4.95;;;;;;;;;;10519273;28;20436;-90
2023/11/26 08:22:06;;;;;;;7.00;3.78;;;;;;;;;;10510445;28;20429;-94
2023/11/26 08:27:09;;;;;;;6.97;3.60;;;;;;;;;;10524302;28;20434;-94
2023/11/26 08:32:14;;;;;;;4.80;3.45;;;;;;;;;;10529299;28;20402;-93
2023/11/26 08:37:18;;;;;;;7.00;4.07;;;;;;;;;;10539995;28;20389;-89
2023/11/26 08:42:20;;;;;;;5.97;3.88;;;;;;;;;;10553024;28;20440;-91
2023/11/26 08:47:28;;;;;;;7.68;4.10;;;;;;;;;;10521487;28;20764;-92
2023/11/26 08:52:33;;;;;;;6.83;4.10;;;;;;;;;;10514384;28;20493;-92
2023/11/26 08:57:39;;;;;;;6.03;3.90;;;;;;;;;;10518752;28;20390;-92
2023/11/26 09:02:43;;;;;;;6.30;4.30;;;;;;;;;;10510729;28;20480;-91
2023/11/26 09:07:46;;;;;;;6.53;3.70;;;;;;;;;;10532598;28;20430;-91
2023/11/26 09:12:49;;;;;;;5.05;3.58;;;;;;;;;;10531874;28;20404;-91
2023/11/26 09:17:52;;;;;;;5.57;3.77;;;;;;;;;;10532854;23;20416;-92
2023/11/26 09:22:55;;;;;;;5.38;3.35;;;;;;;;;;10513428;28;20466;-91
2023/11/26 09:27:57;;;;;;;4.77;2.30;;;;;;;;;;10519179;28;20409;-91
2023/11/26 09:33:02;;;;;;;6.18;2.53;;;;;;;;;;10531908;28;20446;-91
2023/11/26 09:38:05;;;;;;;2.85;1.60;;;;;;;;;;10524361;28;20502;-91
2023/11/26 09:43:07;;;;;;;1.40;1.20;;;;;;;;;;10522773;28;20485;-91
2023/11/26 09:48:11;;;;;;;2.30;1.50;;;;;;;;;;10524889;28;20441;-91
2023/11/26 09:53:14;;;;;;;1.52;1.30;;;;;;;;;;10519373;28;20448;-91
2023/11/26 09:58:17;;;;;;;3.85;2.20;;;;;;;;;;10521466;28;20988;-91
2023/11/26 10:03:25;;;;;;;5.53;2.50;;;;;;;;;;10531313;28;20959;-90
2023/11/26 10:08:29;;;;;;;4.55;2.40;;;;;;;;;;10543293;28;20477;-92
2023/11/26 10:13:38;;;;;;;4.45;2.10;;;;;;;;;;10521316;28;20477;-91
2023/11/26 10:18:44;;;;;;;3.53;1.93;;;;;;;;;;10538609;28;20461;-91
2023/11/26 10:23:46;;;;;;;2.83;1.88;;;;;;;;;;10547018;28;20402;-91
2023/11/26 10:29:08;;;;;;;3.28;2.17;;;;;;;;;;10548983;28;21090;-92
2023/11/26 10:34:14;;;;;;;2.30;1.40;;;;;;;;;;10506136;28;20400;-92
2023/11/26 10:39:17;;;;;;;1.90;1.10;;;;;;;;;;10534457;28;20475;-91
2023/11/26 10:44:19;;;;;;;1.52;1.20;;;;;;;;;;10547043;28;20419;-92
2023/11/26 10:49:34;;;;;;;2.40;1.30;;;;;;;;;;10557962;28;20408;-91
2023/11/26 10:54:45;;;;;;;2.55;1.60;;;;;;;;;;10543957;28;20460;-92
2023/11/26 10:59:50;;;;;;;5.35;2.60;;;;;;;;;;10520988;28;20512;-92
2023/11/26 11:04:54;;;;;;;3.05;1.80;;;;;;;;;;10520466;28;20446;-91
2023/11/26 11:10:07;;;;;;;3.05;1.63;;;;;;;;;;10518013;28;20406;-92
2023/11/26 11:15:10;;;;;;;3.78;1.80;;;;;;;;;;10517366;28;20475;-92
2023/11/26 11:20:14;;;;;;;2.33;1.77;;;;;;;;;;10516337;28;20402;-92
2023/11/26 11:25:18;;;;;;;2.33;1.60;;;;;;;;;;10518930;28;20455;-92
2023/11/26 11:30:53;;;;;;;3.20;1.70;;;;;;;;;;10503784;28;20389;-92
2023/11/26 11:35:56;;;;;;;4.15;2.13;;;;;;;;;;10515626;28;20402;-92
2023/11/26 11:41:00;;;;;;;3.70;2.53;;;;;;;;;;10515418;28;20417;-91
2023/11/26 11:46:35;;;;;;;3.50;2.30;;;;;;;;;;10505857;28;20452;-92
2023/11/26 11:51:42;;;;;;;4.40;2.13;;;;;;;;;;10502584;28;20428;-93
2023/11/26 11:56:46;;;;;;;3.75;2.10;;;;;;;;;;10508793;28;20820;-93
2023/11/26 12:01:51;;;;;;;3.20;2.22;;;;;;;;;;10506254;28;20479;-92
2023/11/26 12:06:56;;;;;;;3.13;2.10;;;;;;;;;;10523747;28;20457;-92
2023/11/26 12:11:58;;;;;;;2.60;1.80;;;;;;;;;;10548170;28;20404;-91
2023/11/26 12:17:06;;;;;;;3.20;2.05;;;;;;;;;;10543354;28;20828;-92
2023/11/26 12:22:11;;;;;;;2.60;2.33;;;;;;;;;;10515918;28;20471;-92
2023/11/26 12:27:23;;;;;;;2.97;2.10;;;;;;;;;;10520582;28;20901;-92
2023/11/26 12:32:26;;;;;;;2.65;1.73;;;;;;;;;;10517323;28;20414;-92
2023/11/26 12:37:33;;;;;;;2.88;1.63;;;;;;;;;;10523425;28;20426;-93
2023/11/26 12:42:35;;;;;;;2.83;1.75;;;;;;;;;;10526087;28;20479;-92
2023/11/26 12:47:49;;;;;;;2.60;1.67;;;;;;;;;;10515127;28;20416;-96
2023/11/26 12:52:53;;;;;;;3.45;2.00;;;;;;;;;;10515212;28;20408;-91
2023/11/26 12:57:55;;;;;;;4.57;3.13;;;;;;;;;;10503953;28;20867;-90
2023/11/26 13:03:05;;;;;;;3.50;2.23;;;;;;;;;;10508559;28;21016;-90
2023/11/26 13:08:20;;;;;;;3.08;2.17;;;;;;;;;;10526046;28;20465;-90
2023/11/26 13:13:24;;;;;;;3.30;2.67;;;;;;;;;;10516160;28;20487;-90
2023/11/26 13:18:27;;;;;;;3.38;2.20;;;;;;;;;;10518090;28;20453;-91
2023/11/26 13:23:30;;;;;;;3.80;2.30;;;;;;;;;;10512575;28;20463;-90
2023/11/26 13:28:33;;;;;;;3.50;2.13;;;;;;;;;;10513854;28;20540;-90
2023/11/26 13:33:35;;;;;;;3.17;2.17;;;;;;;;;;10511303;28;20467;-90
2023/11/26 13:38:39;;;;;;;2.90;2.00;;;;;;;;;;10517805;28;20477;-90
2023/11/26 13:43:41;;;;;;;4.80;2.42;;;;;;;;;;10511701;28;20415;-90
2023/11/26 13:48:44;;;;;;;3.70;2.20;;;;;;;;;;10508145;28;20432;-91
2023/11/26 13:53:48;;;;;;;4.35;2.50;;;;;;;;;;10508236;28;20442;-90
2023/11/26 13:58:50;;;;;;;3.33;2.40;;;;;;;;;;10507937;28;20464;-89
2023/11/26 14:03:52;;;;;;;3.90;2.93;;;;;;;;;;10516600;28;20452;-89
2023/11/26 14:08:56;;;;;;;4.65;3.13;;;;;;;;;;10515645;28;20406;-90
2023/11/26 14:13:59;;;;;;;3.93;3.03;;;;;;;;;;10520065;28;20444;-89
2023/11/26 14:19:01;;;;;;;5.57;3.28;;;;;;;;;;10517928;28;20469;-89
2023/11/26 14:24:06;;;;;;;3.55;3.00;;;;;;;;;;10519078;28;20491;-90
2023/11/26 14:29:12;;;;;;;4.22;3.10;;;;;;;;;;10507722;28;20400;-89
2023/11/26 14:34:15;;;;;;;5.17;3.33;;;;;;;;;;10504250;28;20477;-90
2023/11/26 14:39:19;;;;;;;5.85;3.53;;;;;;;;;;10521184;28;20390;-89
2023/11/26 14:44:22;;;;;;;6.63;4.18;;;;;;;;;;10519411;28;20474;-90
2023/11/26 14:49:28;;;;;;;5.63;3.80;;;;;;;;;;10515734;28;20396;-89
2023/11/26 14:54:32;;;;;;;6.32;3.58;;;;;;;;;;10511990;28;20445;-89
2023/11/26 14:59:35;;;;;;;5.72;4.20;;;;;;;;;;10508725;28;20414;-90
2023/11/26 15:04:38;;;;;;;6.13;3.93;;;;;;;;;;10512270;28;20485;-88
2023/11/26 15:09:42;;;;;;;8.35;5.22;;;;;;;;;;10514305;28;20422;-90
2023/11/26 15:14:44;;;;;;;8.70;4.70;;;;;;;;;;10518055;28;20892;-90
2023/11/26 15:19:47;;;;;;;6.95;4.82;;;;;;;;;;10515598;28;20404;-90
2023/11/26 15:24:51;;;;;;;9.18;4.53;;;;;;;;;;10503971;28;20414;-90
2023/11/26 15:29:54;;;;;;;7.70;4.40;;;;;;;;;;10509770;28;20410;-90
2023/11/26 15:34:57;;;;;;;8.73;5.53;;;;;;;;;;10505902;28;20396;-90
2023/11/26 15:40:01;;;;;;;6.87;4.80;;;;;;;;;;10512355;28;20467;-91
2023/11/26 15:45:05;;;;;;;6.78;4.70;;;;;;;;;;10513529;28;20442;-91
2023/11/26 15:50:08;;;;;;;8.68;5.00;;;;;;;;;;10511057;28;20477;-86
2023/11/26 15:55:12;;;;;;;7.07;4.53;;;;;;;;;;10491536;28;20392;-90
2023/11/26 17:46:54;;;;;;;29.33;17.05;;;;;;;;;;12932310;22;2137924;-89
2023/11/26 17:51:57;;;;;;;24.77;15.27;;;;;;;;;;12979220;22;20402;-88
2023/11/26 17:56:59;;;;;;;24.07;14.80;;;;;;;;;;12982728;22;20449;-87
2023/11/26 18:02:03;;;;;;;21.00;13.02;;;;;;;;;;12978810;22;20388;-88
2023/11/26 18:07:05;;;;;;;24.40;14.63;;;;;;;;;;12976466;22;20480;-88
2023/11/26 18:12:08;;;;;;;56.22;30.20;;;;;;;;;;12974151;22;20444;-88
2023/11/26 18:17:12;;;;;;;39.08;22.45;;;;;;;;;;12975820;22;20487;-88
2023/11/26 18:22:15;;;;;;;38.08;21.98;;;;;;;;;;12978046;22;20415;-88
2023/11/26 18:27:17;;;;;;;45.33;24.87;;;;;;;;;;12975687;22;20411;-88
2023/11/26 18:32:21;;;;;;;45.97;24.58;;;;;;;;;;12976680;22;20407;-87
2023/11/26 18:37:24;;;;;;;48.25;24.60;;;;;;;;;;12975757;22;20383;-88
2023/11/26 18:42:27;;;;;;;35.80;20.95;;;;;;;;;;12975559;22;20438;-87
2023/11/26 18:47:30;;;;;;;35.13;20.55;;;;;;;;;;12975771;22;20375;-87
2023/11/26 18:52:33;;;;;;;32.03;18.92;;;;;;;;;;12979158;22;20358;-86
2023/11/26 18:57:35;;;;;;;26.95;15.95;;;;;;;;;;12975753;22;20445;-88
2023/11/26 19:02:39;;;;;;;24.27;15.10;;;;;;;;;;12977444;22;21037;-88
2023/11/26 19:07:41;;;;;;;25.77;16.10;;;;;;;;;;12976494;22;20410;-88
2023/11/26 19:12:44;;;;;;;25.77;14.98;;;;;;;;;;12980948;22;20485;-88
2023/11/26 19:17:47;;;;;;;24.23;14.35;;;;;;;;;;12975170;22;20879;-91
2023/11/26 19:22:50;;;;;;;25.45;15.07;;;;;;;;;;12974911;22;20434;-89
2023/11/26 19:27:52;;;;;;;23.45;15.25;;;;;;;;;;12975635;22;20948;-87
2023/11/26 19:32:56;;;;;;;29.77;18.00;;;;;;;;;;12975499;22;20517;-88
2023/11/26 19:37:59;;;;;;;39.63;21.38;;;;;;;;;;12974423;22;20791;-87
2023/11/26 19:43:01;;;;;;;29.88;16.63;;;;;;;;;;12989829;22;20402;-88
2023/11/26 19:48:05;;;;;;;22.83;14.67;;;;;;;;;;12997908;22;20397;-88
2023/11/26 19:53:08;;;;;;;23.88;13.60;;;;;;;;;;12978687;22;20407;-88
2023/11/26 19:58:10;;;;;;;23.30;14.38;;;;;;;;;;12972874;22;20384;-88
2023/11/26 20:03:14;;;;;;;29.63;17.45;;;;;;;;;;12971863;22;20465;-88
2023/11/26 20:08:16;;;;;;;28.17;17.33;;;;;;;;;;12971292;22;20570;-87
2023/11/26 20:13:19;;;;;;;27.90;16.88;;;;;;;;;;12979331;22;20442;-87
2023/11/26 20:18:23;;;;;;;31.30;17.42;;;;;;;;;;12973153;22;20374;-87
2023/11/26 20:23:25;;;;;;;27.95;17.50;;;;;;;;;;12973245;22;20386;-88
2023/11/26 20:28:28;;;;;;;26.52;16.58;;;;;;;;;;12986124;22;20367;-86
2023/11/26 20:33:32;;;;;;;25.27;16.25;;;;;;;;;;12974716;22;20367;-88
2023/11/26 20:38:36;;;;;;;24.52;15.13;;;;;;;;;;12973723;22;20746;-86
2023/11/26 20:43:39;;;;;;;25.07;14.80;;;;;;;;;;12974753;22;20461;-87
2023/11/26 20:48:43;;;;;;;25.63;15.48;;;;;;;;;;12974881;22;20482;-88
2023/11/26 20:53:45;;;;;;;24.85;16.25;;;;;;;;;;12973278;22;20426;-88
2023/11/26 20:58:48;;;;;;;28.93;17.60;;;;;;;;;;12973829;22;20444;-87
2023/11/26 21:03:51;;;;;;;27.30;16.15;;;;;;;;;;12975374;22;20450;-88
2023/11/26 21:08:54;;;;;;;28.77;17.30;;;;;;;;;;12975555;22;20854;-88
2023/11/26 21:13:56;;;;;;;52.47;27.27;;;;;;;;;;12973627;22;20379;-88
2023/11/26 21:19:10;;;;;;;50.08;28.27;;;;;;;;;;12972499;22;20440;-87
2023/11/26 21:24:12;;;;;;;32.33;21.08;;;;;;;;;;12971658;22;20430;-87
2023/11/26 21:29:14;;;;;;;34.42;19.65;;;;;;;;;;12974163;22;20440;-87
2023/11/26 21:34:18;;;;;;;29.10;17.10;;;;;;;;;;12985788;22;20362;-87
2023/11/26 21:39:21;;;;;;;24.47;15.63;;;;;;;;;;12972891;22;20462;-88
2023/11/26 21:44:24;;;;;;;21.65;14.18;;;;;;;;;;12975613;22;20460;-88
2023/11/26 21:49:28;;;;;;;22.17;13.70;;;;;;;;;;12974235;22;20391;-86
2023/11/26 21:54:31;;;;;;;24.47;15.20;;;;;;;;;;12974146;22;20406;-86
2023/11/26 21:59:33;;;;;;;25.15;16.58;;;;;;;;;;12976589;22;20432;-88
2023/11/26 22:04:37;;;;;;;30.43;18.10;;;;;;;;;;12972541;22;20415;-86
2023/11/26 22:09:39;;;;;;;33.40;20.13;;;;;;;;;;12972287;22;20378;-88
2023/11/26 22:14:42;;;;;;;35.40;20.98;;;;;;;;;;12975142;22;20409;-87
2023/11/26 22:19:46;;;;;;;35.40;19.98;;;;;;;;;;12975778;22;20382;-88
2023/11/26 22:24:49;;;;;;;32.80;18.38;;;;;;;;;;12974368;22;20386;-87
2023/11/26 22:29:51;;;;;;;30.27;18.02;;;;;;;;;;12978475;22;20366;-87
2023/11/26 22:34:55;;;;;;;25.47;15.80;;;;;;;;;;12981677;22;20371;-87
2023/11/26 22:39:57;;;;;;;24.17;15.02;;;;;;;;;;13002539;22;20359;-87
2023/11/26 22:44:59;;;;;;;38.00;20.65;;;;;;;;;;13003416;22;20904;-86
2023/11/26 22:50:03;;;;;;;27.35;16.00;;;;;;;;;;12978339;22;20437;-88
2023/11/26 22:55:06;;;;;;;28.23;18.20;;;;;;;;;;12984560;22;20358;-87
2023/11/26 23:00:19;;;;;;;30.25;16.67;;;;;;;;;;12982719;22;20822;-86
2023/11/26 23:05:24;;;;;;;24.42;14.45;;;;;;;;;;13004980;22;20916;-87
2023/11/26 23:10:26;;;;;;;23.42;13.82;;;;;;;;;;12982524;22;20363;-87
2023/11/26 23:15:28;;;;;;;23.48;13.20;;;;;;;;;;12982885;22;20746;-87
2023/11/26 23:20:32;;;;;;;25.23;16.07;;;;;;;;;;12982737;22;20460;-87
2023/11/26 23:25:35;;;;;;;24.60;15.17;;;;;;;;;;12982641;22;20382;-87
2023/11/26 23:30:37;;;;;;;21.75;13.55;;;;;;;;;;12983974;22;20367;-88
2023/11/26 23:35:41;;;;;;;24.23;13.17;;;;;;;;;;12986344;22;20388;-88
2023/11/26 23:40:46;;;;;;;18.83;11.35;;;;;;;;;;12988959;22;20401;-87
2023/11/26 23:45:48;;;;;;;16.33;10.40;;;;;;;;;;12984422;22;20400;-88
2023/11/26 23:50:52;;;;;;;16.65;10.48;;;;;;;;;;13005287;22;20386;-88
2023/11/26 23:55:55;;;;;;;16.50;10.40;;;;;;;;;;12981657;22;20371;-88
